KBAD

Barksdale Air Force Base

Airport
ICAO code
KBAD
IATA Code
BAD
Summary
ICAO Region
NAM
ICAO Territory
Location

Bossier City, Louisiana

Serving
Bossier City
Elevation
165 ft
Coordinates
32° 30' 7" N , 93° 39' 26" W
KCC
Metar
KBAD 181755Z AUTO 21005KT 9SM SCT018 OVC025 26/22 A2995 RMK AO2 LTG DSNT NE CIG 019V025 SLP145 T02560221 10260 20220 57005

Description

Barksdale Air Force Base is a United States Air Force installation located to the east and southeast of Bossier City, Louisiana.

Airport map

Aerial View

SKYbrary Partners:

Safety knowledge contributed by: